createdAt,value
2019-02-20T00:00:23.970Z,6.76
2019-02-20T00:01:23.963Z,6.72
2019-02-20T00:02:23.942Z,6.73
2019-02-20T00:03:23.945Z,6.69
2019-02-20T00:04:23.924Z,6.75
2019-02-20T00:05:23.920Z,6.71
2019-02-20T00:06:23.899Z,6.75
2019-02-20T00:07:23.895Z,6.64
2019-02-20T00:08:23.888Z,6.76
2019-02-20T00:09:25.156Z,6.83
2019-02-20T00:10:23.863Z,6.76
2019-02-20T00:11:23.847Z,6.78
2019-02-20T00:12:23.837Z,6.78
2019-02-20T00:13:23.866Z,6.75
2019-02-20T00:14:23.817Z,6.75
2019-02-20T00:15:23.802Z,6.76
2019-02-20T00:16:23.794Z,6.79
2019-02-20T00:17:23.782Z,6.81
2019-02-20T00:18:23.774Z,6.79
2019-02-20T00:19:23.767Z,6.83
2019-02-20T00:20:23.761Z,6.87
2019-02-20T00:21:23.741Z,6.75
2019-02-20T00:22:23.731Z,6.73
2019-02-20T00:23:23.715Z,6.83
2019-02-20T00:24:23.710Z,6.86
2019-02-20T00:25:23.706Z,6.87
2019-02-20T00:26:23.692Z,6.78
2019-02-20T00:27:23.671Z,6.79
2019-02-20T00:28:23.673Z,6.71
2019-02-20T00:29:23.659Z,6.75
2019-02-20T00:30:23.675Z,6.75
2019-02-20T00:31:23.639Z,6.72
2019-02-20T00:32:23.617Z,6.73
2019-02-20T00:33:23.606Z,6.79
2019-02-20T00:34:23.599Z,6.79
2019-02-20T00:35:23.627Z,6.71
2019-02-20T00:36:23.573Z,6.72
2019-02-20T00:37:23.568Z,6.73
2019-02-20T00:38:23.552Z,6.75
2019-02-20T00:39:23.548Z,6.81
2019-02-20T00:40:23.531Z,6.79
2019-02-20T00:41:23.530Z,6.75
2019-02-20T00:42:23.514Z,6.78
2019-02-20T00:43:23.504Z,6.76
2019-02-20T00:44:23.487Z,6.79
2019-02-20T00:45:23.481Z,6.75
2019-02-20T00:46:23.504Z,6.79
2019-02-20T00:47:23.459Z,6.76
2019-02-20T00:48:23.449Z,6.87
2019-02-20T00:49:23.434Z,6.71
2019-02-20T00:50:23.422Z,6.78
2019-02-20T00:51:23.411Z,6.86
2019-02-20T00:52:23.426Z,6.81
2019-02-20T00:53:23.410Z,6.79
2019-02-20T00:54:23.383Z,6.87
2019-02-20T00:55:23.369Z,6.82
2019-02-20T00:56:23.386Z,6.91
2019-02-20T00:57:23.352Z,6.76
2019-02-20T00:58:23.351Z,6.90
2019-02-20T00:59:23.364Z,6.72
2019-02-20T01:00:23.313Z,6.73
2019-02-20T01:01:23.303Z,6.76
2019-02-20T01:02:23.292Z,6.71
2019-02-20T01:03:23.297Z,6.78
2019-02-20T01:04:23.270Z,6.76
2019-02-20T01:05:23.270Z,6.75
2019-02-20T01:06:23.256Z,6.79
2019-02-20T01:07:23.237Z,6.79
2019-02-20T01:08:23.239Z,6.79
2019-02-20T01:09:23.234Z,6.75
2019-02-20T01:10:23.207Z,6.72
2019-02-20T01:11:23.210Z,6.75
2019-02-20T01:12:23.189Z,6.71
2019-02-20T01:13:23.174Z,6.71
2019-02-20T01:14:23.201Z,6.73
2019-02-20T01:15:23.150Z,6.72
2019-02-20T01:16:23.145Z,6.61
2019-02-20T01:17:23.139Z,6.60
2019-02-20T01:18:23.140Z,6.64
2019-02-20T01:19:23.107Z,6.63
2019-02-20T01:20:23.110Z,6.65
2019-02-20T01:21:23.094Z,6.64
2019-02-20T01:22:23.087Z,6.65
2019-02-20T01:23:23.070Z,6.57
2019-02-20T01:24:23.061Z,6.57
2019-02-20T01:25:23.101Z,6.58
2019-02-20T01:26:23.040Z,6.61
2019-02-20T01:27:23.028Z,6.63
2019-02-20T01:28:23.021Z,6.58
2019-02-20T01:29:23.027Z,6.69
2019-02-20T01:30:22.994Z,6.63
2019-02-20T01:31:22.994Z,6.73
2019-02-20T01:32:22.974Z,6.73
2019-02-20T01:33:22.968Z,6.71
2019-02-20T01:34:22.958Z,6.73
2019-02-20T01:35:22.944Z,6.72
2019-02-20T01:36:22.952Z,6.73
2019-02-20T01:37:22.923Z,6.69
2019-02-20T01:38:22.910Z,6.73
2019-02-20T01:39:22.892Z,6.79
2019-02-20T01:40:22.886Z,6.78
2019-02-20T01:41:22.894Z,6.73
2019-02-20T01:42:22.875Z,6.68
2019-02-20T01:43:22.851Z,6.76
2019-02-20T01:44:22.841Z,6.91
2019-02-20T01:45:22.843Z,6.82
2019-02-20T01:46:22.857Z,6.83
2019-02-20T01:47:22.808Z,6.83
2019-02-20T01:48:22.801Z,6.86
2019-02-20T01:49:22.785Z,6.82
2019-02-20T01:50:22.782Z,6.94
2019-02-20T01:51:22.768Z,6.76
2019-02-20T01:52:22.764Z,6.89
2019-02-20T01:53:22.779Z,6.91
2019-02-20T01:54:22.741Z,6.83
2019-02-20T01:55:22.736Z,6.87
2019-02-20T01:56:22.715Z,6.82
2019-02-20T01:57:22.716Z,6.81
2019-02-20T01:58:22.720Z,6.81
2019-02-20T01:59:22.684Z,6.83
2019-02-20T02:00:22.668Z,6.78
2019-02-20T02:01:22.662Z,6.78
2019-02-20T02:02:22.651Z,6.73
2019-02-20T02:03:22.642Z,6.90
2019-02-20T02:04:22.638Z,6.72
2019-02-20T02:05:22.621Z,6.82
2019-02-20T02:06:22.610Z,6.82
2019-02-20T02:07:22.629Z,6.79
2019-02-20T02:08:22.586Z,6.73
2019-02-20T02:09:22.573Z,6.94
2019-02-20T02:10:22.558Z,6.86
2019-02-20T02:11:22.549Z,6.86
2019-02-20T02:12:22.538Z,6.76
2019-02-20T02:13:22.545Z,6.89
2019-02-20T02:14:22.622Z,6.86
2019-02-20T02:15:22.516Z,6.94
2019-02-20T02:16:22.496Z,6.94
2019-02-20T02:17:22.486Z,6.94
2019-02-20T02:18:22.488Z,7.00
2019-02-20T02:19:22.467Z,6.90
2019-02-20T02:20:22.463Z,6.91
2019-02-20T02:21:22.444Z,6.91
2019-02-20T02:22:22.964Z,6.97
2019-02-20T02:23:22.423Z,6.97
2019-02-20T02:24:22.413Z,6.97
2019-02-20T02:25:22.406Z,6.94
2019-02-20T02:26:22.384Z,6.94
2019-02-20T02:27:22.375Z,7.00
2019-02-20T02:28:22.367Z,6.96
2019-02-20T02:29:22.357Z,7.04
2019-02-20T02:30:22.356Z,6.96
2019-02-20T02:31:22.336Z,6.90
2019-02-20T02:32:22.320Z,6.89
2019-02-20T02:33:22.325Z,6.89
2019-02-20T02:34:22.311Z,6.91
2019-02-20T02:35:22.292Z,6.90
2019-02-20T02:36:22.275Z,6.87
2019-02-20T02:37:22.274Z,6.90
2019-02-20T02:38:22.266Z,6.87
2019-02-20T02:39:22.253Z,6.87
2019-02-20T02:40:22.236Z,6.91
2019-02-20T02:41:22.231Z,6.91
2019-02-20T02:42:22.214Z,6.97
2019-02-20T02:43:22.202Z,6.96
2019-02-20T02:44:22.193Z,6.94
2019-02-20T02:45:22.214Z,6.94
2019-02-20T02:46:22.172Z,6.97
2019-02-20T02:47:22.165Z,6.87
2019-02-20T02:48:22.155Z,6.93
2019-02-20T02:49:22.138Z,6.90
2019-02-20T02:50:22.146Z,6.90
2019-02-20T02:51:22.147Z,6.94
2019-02-20T02:52:22.110Z,6.89
2019-02-20T02:53:30.369Z,6.90
2019-02-20T02:54:23.085Z,6.90
2019-02-20T02:55:22.077Z,6.89
2019-02-20T02:56:22.059Z,6.83
2019-02-20T02:57:22.056Z,6.86
2019-02-20T02:58:22.043Z,6.78
2019-02-20T02:59:22.026Z,6.87
2019-02-20T03:00:22.020Z,6.91
2019-02-20T03:01:22.028Z,6.96
2019-02-20T03:02:22.017Z,6.87
2019-02-20T03:03:21.986Z,6.83
2019-02-20T03:04:22.067Z,6.90
2019-02-20T03:05:21.963Z,6.73
2019-02-20T03:06:21.957Z,6.87
2019-02-20T03:07:21.944Z,6.87
2019-02-20T03:08:21.957Z,6.75
2019-02-20T03:09:21.922Z,6.75
2019-02-20T03:10:21.906Z,6.75
2019-02-20T03:11:21.911Z,6.71
2019-02-20T03:12:21.891Z,6.78
2019-02-20T03:13:21.880Z,6.81
2019-02-20T03:14:22.473Z,6.79
2019-02-20T03:15:21.879Z,6.73
2019-02-20T03:16:21.849Z,6.82
2019-02-20T03:17:21.843Z,6.75
2019-02-20T03:18:21.854Z,6.81
2019-02-20T03:19:21.842Z,6.76
2019-02-20T03:20:21.803Z,6.72
2019-02-20T03:21:21.794Z,6.65
2019-02-20T03:22:21.798Z,6.72
2019-02-20T03:23:21.834Z,6.68
2019-02-20T03:24:21.757Z,6.71
2019-02-20T03:25:21.751Z,6.71
2019-02-20T03:26:21.735Z,6.60
2019-02-20T03:27:21.724Z,6.57
2019-02-20T03:28:21.715Z,6.60
2019-02-20T03:29:21.720Z,6.68
2019-02-20T03:30:21.699Z,6.58
2019-02-20T03:31:21.731Z,6.58
2019-02-20T03:32:21.673Z,6.65
2019-02-20T03:33:21.700Z,6.58
2019-02-20T03:34:21.680Z,6.55
2019-02-20T03:35:21.645Z,6.60
2019-02-20T03:36:21.637Z,6.64
2019-02-20T03:37:21.633Z,6.45
2019-02-20T03:38:30.050Z,6.53
2019-02-20T03:39:22.636Z,6.55
2019-02-20T03:40:21.594Z,6.53
2019-02-20T03:41:21.585Z,6.50
2019-02-20T03:42:21.566Z,6.55
2019-02-20T03:43:21.562Z,6.48
2019-02-20T03:44:21.543Z,6.45
2019-02-20T03:45:21.543Z,6.42
2019-02-20T03:46:21.537Z,6.42
2019-02-20T03:47:21.516Z,6.40
2019-02-20T03:48:21.507Z,6.46
2019-02-20T03:49:21.499Z,6.42
2019-02-20T03:50:21.486Z,6.45
2019-02-20T03:51:21.484Z,6.40
2019-02-20T03:52:21.464Z,6.43
2019-02-20T03:53:21.447Z,6.42
2019-02-20T03:54:21.441Z,6.39
2019-02-20T03:55:21.433Z,6.35
2019-02-20T03:56:21.445Z,6.27
2019-02-20T03:57:21.405Z,6.36
2019-02-20T03:58:21.397Z,6.30
2019-02-20T03:59:21.384Z,6.33
2019-02-20T04:00:21.378Z,6.25
2019-02-20T04:01:21.407Z,6.25
2019-02-20T04:02:21.359Z,6.30
2019-02-20T04:03:21.340Z,6.17
2019-02-20T04:04:21.334Z,6.21
2019-02-20T04:05:21.324Z,6.24
2019-02-20T04:06:21.311Z,6.28
2019-02-20T04:07:21.311Z,6.24
2019-02-20T04:08:21.295Z,6.27
2019-02-20T04:09:21.276Z,6.25
2019-02-20T04:10:21.271Z,6.27
2019-02-20T04:11:21.255Z,6.25
2019-02-20T04:12:21.292Z,6.30
2019-02-20T04:13:21.233Z,6.30
2019-02-20T04:14:21.228Z,6.28
2019-02-20T04:15:21.219Z,6.24
2019-02-20T04:16:21.199Z,6.27
2019-02-20T04:17:21.191Z,6.24
2019-02-20T04:18:21.187Z,6.27
2019-02-20T04:19:21.173Z,6.20
2019-02-20T04:20:21.203Z,6.28
2019-02-20T04:21:21.152Z,6.21
2019-02-20T04:22:21.142Z,6.24
2019-02-20T04:23:21.173Z,6.25
2019-02-20T04:24:21.122Z,6.25
2019-02-20T04:25:21.108Z,6.32
2019-02-20T04:26:21.096Z,6.36
2019-02-20T04:27:21.091Z,6.32
2019-02-20T04:28:21.082Z,6.40
2019-02-20T04:29:21.075Z,6.40
2019-02-20T04:30:21.053Z,6.45
2019-02-20T04:31:21.044Z,6.36
2019-02-20T04:32:21.045Z,6.39
2019-02-20T04:33:21.079Z,6.43
2019-02-20T04:34:21.026Z,6.39
2019-02-20T04:35:21.009Z,6.45
2019-02-20T04:36:20.997Z,6.33
2019-02-20T04:37:20.986Z,6.46
2019-02-20T04:38:20.971Z,6.42
2019-02-20T04:39:20.969Z,6.50
2019-02-20T04:40:20.945Z,6.51
2019-02-20T04:41:20.935Z,6.51
2019-02-20T04:42:20.951Z,6.57
2019-02-20T04:43:20.918Z,6.54
2019-02-20T04:44:20.917Z,6.60
2019-02-20T04:45:20.905Z,6.55
2019-02-20T04:46:20.905Z,6.57
2019-02-20T04:47:20.873Z,6.53
2019-02-20T04:48:20.861Z,6.60
2019-02-20T04:49:20.849Z,6.65
2019-02-20T04:50:20.888Z,6.68
2019-02-20T04:51:20.831Z,6.60
2019-02-20T04:52:20.822Z,6.73
2019-02-20T04:53:20.810Z,6.69
2019-02-20T04:54:20.797Z,6.72
2019-02-20T04:55:20.787Z,6.72
2019-02-20T04:56:20.790Z,6.71
2019-02-20T04:57:20.771Z,6.75
2019-02-20T04:58:20.768Z,6.81
2019-02-20T04:59:20.746Z,6.79
2019-02-20T05:00:20.746Z,6.76
2019-02-20T05:01:20.735Z,6.75
2019-02-20T05:02:20.799Z,6.79
2019-02-20T05:03:23.038Z,6.75
2019-02-20T05:04:20.691Z,6.82
2019-02-20T05:05:20.687Z,6.79
2019-02-20T05:06:20.685Z,6.82
2019-02-20T05:07:20.658Z,6.76
2019-02-20T05:08:20.649Z,6.81
2019-02-20T05:09:20.635Z,6.87
2019-02-20T05:10:20.629Z,6.87
2019-02-20T05:11:20.634Z,6.76
2019-02-20T05:12:20.605Z,6.89
2019-02-20T05:13:20.676Z,6.86
2019-02-20T05:14:20.581Z,6.78
2019-02-20T05:15:20.571Z,6.91
2019-02-20T05:16:20.564Z,6.91
2019-02-20T05:17:20.559Z,6.83
2019-02-20T05:18:20.601Z,6.87
2019-02-20T05:19:20.529Z,6.97
2019-02-20T05:20:20.517Z,6.91
2019-02-20T05:21:20.506Z,6.91
2019-02-20T05:22:20.510Z,6.89
2019-02-20T05:23:20.486Z,6.94
2019-02-20T05:24:24.465Z,6.91
2019-02-20T05:25:20.466Z,6.91
2019-02-20T05:26:20.452Z,6.97
2019-02-20T05:27:20.480Z,6.96
2019-02-20T05:28:20.439Z,6.96
2019-02-20T05:29:20.429Z,6.99
2019-02-20T05:30:27.037Z,6.96
2019-02-20T05:31:20.403Z,7.04
2019-02-20T05:32:20.398Z,6.91
2019-02-20T05:33:20.386Z,7.05
2019-02-20T05:34:20.373Z,7.00
2019-02-20T05:35:20.355Z,6.99
2019-02-20T05:36:20.352Z,7.00
2019-02-20T05:37:20.342Z,6.96
2019-02-20T05:38:20.342Z,6.93
2019-02-20T05:39:20.319Z,7.00
2019-02-20T05:40:20.309Z,6.94
2019-02-20T05:41:20.299Z,6.96
2019-02-20T05:42:20.280Z,7.04
2019-02-20T05:43:20.314Z,6.94
2019-02-20T05:44:20.257Z,7.00
2019-02-20T05:45:20.268Z,7.08
2019-02-20T05:46:20.244Z,6.96
2019-02-20T05:47:20.229Z,7.04
2019-02-20T05:48:20.214Z,7.01
2019-02-20T05:49:20.217Z,7.04
2019-02-20T05:50:20.201Z,6.99
2019-02-20T05:51:20.217Z,7.05
2019-02-20T05:52:20.173Z,6.94
2019-02-20T05:53:20.161Z,6.96
2019-02-20T05:54:20.169Z,6.91
2019-02-20T05:55:20.159Z,6.99
2019-02-20T05:56:20.163Z,6.91
2019-02-20T05:57:20.120Z,6.96
2019-02-20T05:58:20.105Z,7.00
2019-02-20T05:59:20.109Z,6.94
2019-02-20T06:00:20.089Z,7.05
2019-02-20T06:01:20.083Z,6.96
2019-02-20T06:02:20.063Z,7.07
2019-02-20T06:03:20.053Z,7.09
2019-02-20T06:04:20.056Z,7.00
2019-02-20T06:05:20.033Z,6.96
2019-02-20T06:06:20.031Z,6.93
2019-02-20T06:07:20.009Z,6.90
2019-02-20T06:08:20.018Z,6.97
2019-02-20T06:09:19.994Z,7.04
2019-02-20T06:10:19.976Z,6.96
2019-02-20T06:11:19.989Z,7.01
2019-02-20T06:12:19.968Z,7.01
2019-02-20T06:13:19.949Z,7.04
2019-02-20T06:14:19.937Z,7.05
2019-02-20T06:15:19.930Z,7.07
2019-02-20T06:16:19.924Z,7.07
2019-02-20T06:17:19.899Z,7.04
2019-02-20T06:18:19.890Z,6.96
2019-02-20T06:19:19.884Z,6.99
2019-02-20T06:20:19.872Z,6.91
2019-02-20T06:21:19.878Z,6.97
2019-02-20T06:22:19.847Z,7.07
2019-02-20T06:23:19.840Z,6.90
2019-02-20T06:24:19.833Z,7.05
2019-02-20T06:25:19.830Z,6.91
2019-02-20T06:26:19.856Z,7.05
2019-02-20T06:27:19.790Z,7.04
2019-02-20T06:28:19.791Z,7.01
2019-02-20T06:29:19.775Z,7.07
2019-02-20T06:30:19.765Z,7.09
2019-02-20T06:31:19.753Z,7.05
2019-02-20T06:32:19.754Z,7.01
2019-02-20T06:33:19.749Z,7.09
2019-02-20T06:34:19.724Z,7.09
2019-02-20T06:35:19.706Z,7.00
2019-02-20T06:36:19.694Z,7.05
2019-02-20T06:37:19.690Z,7.11
2019-02-20T06:38:19.690Z,7.08
2019-02-20T06:39:19.666Z,7.14
2019-02-20T06:40:19.666Z,7.08
2019-02-20T06:41:19.650Z,7.14
2019-02-20T06:42:19.634Z,7.15
2019-02-20T06:43:19.621Z,7.16
2019-02-20T06:44:19.615Z,7.14
2019-02-20T06:45:19.596Z,7.16
2019-02-20T06:46:19.594Z,7.12
2019-02-20T06:47:19.575Z,7.21
2019-02-20T06:48:19.567Z,7.23
2019-02-20T06:49:19.559Z,7.23
2019-02-20T06:50:19.571Z,7.15
2019-02-20T06:51:19.539Z,7.23
2019-02-20T06:52:19.524Z,7.19
2019-02-20T06:53:19.507Z,7.23
2019-02-20T06:54:19.510Z,7.21
2019-02-20T06:55:19.485Z,7.21
2019-02-20T06:56:19.475Z,7.26
2019-02-20T06:57:19.474Z,7.30
2019-02-20T06:58:19.467Z,7.27
2019-02-20T06:59:19.485Z,7.27
2019-02-20T07:00:19.432Z,7.37
2019-02-20T07:01:19.420Z,7.36
2019-02-20T07:02:19.463Z,7.30
2019-02-20T07:03:19.408Z,7.34
2019-02-20T07:04:19.395Z,7.36
2019-02-20T07:05:19.386Z,7.45
2019-02-20T07:06:19.368Z,7.32
2019-02-20T07:07:19.355Z,7.37
2019-02-20T07:08:19.346Z,7.37
2019-02-20T07:09:19.339Z,7.37
2019-02-20T07:10:19.336Z,7.41
2019-02-20T07:11:19.314Z,7.42
2019-02-20T07:12:19.308Z,7.32
2019-02-20T07:13:19.295Z,7.50
2019-02-20T07:14:19.282Z,7.50
2019-02-20T07:15:19.302Z,7.42
2019-02-20T07:16:20.146Z,7.36
2019-02-20T07:17:19.254Z,7.41
2019-02-20T07:18:19.238Z,7.32
2019-02-20T07:19:19.232Z,7.44
2019-02-20T07:20:19.225Z,7.37
2019-02-20T07:21:19.242Z,7.44
2019-02-20T07:22:20.868Z,7.44
2019-02-20T07:23:19.197Z,7.33
2019-02-20T07:24:19.174Z,7.36
2019-02-20T07:25:19.166Z,7.42
2019-02-20T07:26:19.154Z,7.48
2019-02-20T07:27:19.170Z,7.47
2019-02-20T07:28:19.133Z,7.50
2019-02-20T07:29:19.125Z,7.51
2019-02-20T07:30:19.111Z,7.51
2019-02-20T07:31:19.102Z,7.51
2019-02-20T07:32:19.094Z,7.51
2019-02-20T07:33:19.083Z,7.50
2019-02-20T07:34:19.075Z,7.50
2019-02-20T07:35:19.064Z,7.58
2019-02-20T07:36:19.042Z,7.57
2019-02-20T07:37:19.041Z,7.57
2019-02-20T07:38:19.034Z,7.62
2019-02-20T07:39:19.015Z,7.60
2019-02-20T07:40:19.007Z,7.55
2019-02-20T07:41:18.990Z,7.55
2019-02-20T07:42:18.989Z,7.58
2019-02-20T07:43:18.969Z,7.57
2019-02-20T07:44:18.965Z,7.67
2019-02-20T07:45:18.963Z,7.52
2019-02-20T07:46:18.939Z,7.58
2019-02-20T07:47:18.962Z,7.54
2019-02-20T07:48:18.913Z,7.62
2019-02-20T07:49:18.909Z,7.60
2019-02-20T07:50:18.893Z,7.62
2019-02-20T07:51:18.887Z,7.69
2019-02-20T07:52:18.869Z,7.85
2019-02-20T07:53:18.873Z,7.84
2019-02-20T07:54:18.857Z,7.95
2019-02-20T07:55:18.837Z,7.94
2019-02-20T07:56:18.836Z,7.94
2019-02-20T07:57:18.817Z,7.99
2019-02-20T07:58:18.817Z,8.02
2019-02-20T07:59:18.794Z,7.96
2019-02-20T08:00:18.784Z,8.07
2019-02-20T08:01:18.843Z,8.14
2019-02-20T08:02:18.774Z,8.24
2019-02-20T08:03:18.789Z,8.24
2019-02-20T08:04:18.746Z,8.25
2019-02-20T08:05:18.733Z,8.36
2019-02-20T08:06:18.720Z,8.21
2019-02-20T08:07:18.713Z,8.22
2019-02-20T08:08:18.700Z,8.13
2019-02-20T08:09:18.699Z,8.10
2019-02-20T08:10:18.674Z,8.02
2019-02-20T08:11:18.664Z,8.10
2019-02-20T08:12:18.667Z,8.04
2019-02-20T08:13:18.647Z,7.92
2019-02-20T08:14:18.629Z,7.96
2019-02-20T08:15:18.620Z,7.86
2019-02-20T08:16:18.616Z,7.94
2019-02-20T08:17:18.640Z,7.79
2019-02-20T08:18:18.588Z,7.86
2019-02-20T08:19:18.575Z,7.79
2019-02-20T08:20:18.572Z,7.77
2019-02-20T08:21:18.555Z,7.84
2019-02-20T08:22:18.555Z,7.85
2019-02-20T08:23:18.540Z,7.85
2019-02-20T08:24:18.523Z,7.91
2019-02-20T08:25:22.791Z,7.89
2019-02-20T08:26:18.508Z,7.91
2019-02-20T08:27:18.493Z,7.96
2019-02-20T08:28:18.481Z,8.00
2019-02-20T08:29:18.471Z,8.00
2019-02-20T08:30:18.471Z,8.00
2019-02-20T08:31:18.454Z,8.13
2019-02-20T08:32:18.442Z,8.22
2019-02-20T08:33:18.433Z,8.43
2019-02-20T08:34:18.480Z,8.46
2019-02-20T08:35:18.416Z,8.42
2019-02-20T08:36:18.397Z,8.42
2019-02-20T08:37:19.886Z,8.39
2019-02-20T08:38:18.378Z,8.63
2019-02-20T08:39:18.363Z,8.50
2019-02-20T08:40:18.407Z,8.67
2019-02-20T08:41:18.342Z,8.71
2019-02-20T08:42:18.327Z,8.85
2019-02-20T08:43:18.328Z,8.93
2019-02-20T08:44:18.309Z,9.04
2019-02-20T08:45:18.301Z,8.98
2019-02-20T08:46:18.298Z,9.13
2019-02-20T08:47:18.280Z,9.31
2019-02-20T08:48:18.272Z,9.38
2019-02-20T08:49:18.254Z,9.44
2019-02-20T08:50:18.251Z,9.41
2019-02-20T08:51:18.231Z,9.42
2019-02-20T08:52:18.221Z,9.35
2019-02-20T08:53:18.214Z,9.49
2019-02-20T08:54:18.233Z,9.49
2019-02-20T08:55:18.905Z,9.31
2019-02-20T08:56:18.173Z,9.31
2019-02-20T08:57:18.164Z,9.40
2019-02-20T08:58:18.168Z,9.38
2019-02-20T08:59:18.152Z,9.58
2019-02-20T09:00:18.180Z,9.73
2019-02-20T09:01:18.124Z,9.67
2019-02-20T09:02:18.116Z,9.62
2019-02-20T09:03:18.098Z,9.88
2019-02-20T09:04:18.087Z,9.75
2019-02-20T09:05:18.080Z,9.73
2019-02-20T09:06:18.086Z,9.58
2019-02-20T09:07:18.061Z,9.49
2019-02-20T09:08:18.046Z,9.45
2019-02-20T09:09:18.039Z,9.27
2019-02-20T09:10:18.031Z,9.17
2019-02-20T09:11:18.026Z,9.23
2019-02-20T09:12:18.002Z,9.30
2019-02-20T09:13:17.989Z,9.13
2019-02-20T09:14:17.988Z,9.10
2019-02-20T09:15:17.975Z,9.20
2019-02-20T09:16:17.998Z,9.22
2019-02-20T09:17:17.954Z,9.15
2019-02-20T09:18:17.940Z,9.13
2019-02-20T09:19:17.926Z,9.12
2019-02-20T09:20:17.911Z,9.03
2019-02-20T09:21:17.909Z,9.03
2019-02-20T09:22:17.904Z,9.10
2019-02-20T09:23:17.878Z,9.06
2019-02-20T09:24:17.869Z,9.20
2019-02-20T09:25:20.101Z,9.15
2019-02-20T09:26:17.857Z,9.19
2019-02-20T09:27:17.852Z,9.19
2019-02-20T09:28:17.830Z,9.08
2019-02-20T09:29:17.814Z,9.03
2019-02-20T09:30:17.808Z,9.15
2019-02-20T09:31:17.791Z,8.96
2019-02-20T09:32:17.786Z,9.01
2019-02-20T09:33:17.779Z,9.03
2019-02-20T09:34:17.757Z,9.04
2019-02-20T09:35:17.752Z,9.22
2019-02-20T09:36:17.736Z,9.10
2019-02-20T09:37:17.730Z,8.98
2019-02-20T09:38:18.479Z,9.00
2019-02-20T09:39:17.708Z,9.06
2019-02-20T09:40:17.697Z,8.91
2019-02-20T09:41:17.684Z,8.97
2019-02-20T09:42:17.674Z,9.00
2019-02-20T09:43:17.669Z,8.93
2019-02-20T09:44:17.651Z,9.03
2019-02-20T09:45:17.647Z,9.03
2019-02-20T09:46:17.626Z,9.10
2019-02-20T09:47:17.620Z,9.00
2019-02-20T09:48:17.622Z,9.01
2019-02-20T09:49:17.593Z,9.03
2019-02-20T09:50:17.584Z,8.98
2019-02-20T09:51:17.573Z,9.04
2019-02-20T09:52:17.569Z,9.04
2019-02-20T09:53:17.568Z,8.96
2019-02-20T09:54:17.543Z,9.17
2019-02-20T09:55:17.534Z,9.22
2019-02-20T09:56:17.521Z,9.20
2019-02-20T09:57:17.510Z,9.37
2019-02-20T09:58:17.534Z,9.15
2019-02-20T09:59:17.482Z,9.15
2019-02-20T10:00:17.483Z,9.22
2019-02-20T10:01:17.463Z,9.22
2019-02-20T10:02:17.450Z,9.40
2019-02-20T10:03:17.443Z,9.38
2019-02-20T10:04:17.437Z,9.48
2019-02-20T10:05:17.417Z,9.53
2019-02-20T10:06:17.407Z,9.55
2019-02-20T10:07:17.401Z,9.65
2019-02-20T10:08:17.394Z,9.65
2019-02-20T10:09:17.392Z,9.65
2019-02-20T10:10:17.362Z,9.74
2019-02-20T10:11:17.356Z,9.67
2019-02-20T10:12:17.341Z,9.60
2019-02-20T10:13:17.360Z,9.65
2019-02-20T10:14:17.333Z,9.58
2019-02-20T10:15:17.320Z,9.53
2019-02-20T10:16:17.296Z,9.53
2019-02-20T10:17:17.287Z,9.65
2019-02-20T10:18:17.296Z,9.81
2019-02-20T10:19:17.283Z,9.86
2019-02-20T10:20:17.266Z,9.98
2019-02-20T10:21:17.333Z,9.86
2019-02-20T10:22:17.242Z,10.02
2019-02-20T10:23:17.226Z,10.04
2019-02-20T10:24:17.209Z,9.98
2019-02-20T10:25:17.207Z,9.96
2019-02-20T10:26:17.187Z,9.95
2019-02-20T10:27:17.176Z,10.09
2019-02-20T10:28:17.166Z,10.01
2019-02-20T10:29:17.173Z,9.95
2019-02-20T10:30:17.156Z,10.10
2019-02-20T10:31:17.139Z,10.04
2019-02-20T10:32:17.141Z,10.13
2019-02-20T10:33:17.123Z,9.98
2019-02-20T10:34:17.104Z,9.99
2019-02-20T10:35:17.100Z,10.10
2019-02-20T10:36:17.094Z,10.02
2019-02-20T10:37:17.072Z,10.07
2019-02-20T10:38:17.059Z,10.10
2019-02-20T10:39:17.052Z,10.18
2019-02-20T10:40:17.034Z,10.16
2019-02-20T10:41:17.050Z,10.14
2019-02-20T10:42:17.520Z,10.22
2019-02-20T10:43:17.007Z,10.46
2019-02-20T10:44:16.996Z,10.43
2019-02-20T10:45:16.987Z,10.46
2019-02-20T10:46:16.970Z,10.42
2019-02-20T10:47:16.972Z,10.39
2019-02-20T10:48:16.952Z,10.47
2019-02-20T10:49:16.939Z,10.52
2019-02-20T10:50:16.931Z,10.68
2019-02-20T10:51:16.918Z,10.81
2019-02-20T10:52:16.921Z,10.93
2019-02-20T10:53:16.901Z,10.98
2019-02-20T10:54:16.932Z,11.03
2019-02-20T10:55:16.917Z,11.06
2019-02-20T10:56:16.861Z,11.06
2019-02-20T10:57:16.849Z,10.95
2019-02-20T10:58:16.838Z,10.88
2019-02-20T10:59:16.834Z,10.94
2019-02-20T11:00:23.991Z,10.93
2019-02-20T11:01:17.839Z,10.99
2019-02-20T11:02:16.799Z,10.94
2019-02-20T11:03:16.789Z,10.94
2019-02-20T11:04:16.778Z,11.05
2019-02-20T11:05:16.761Z,11.02
2019-02-20T11:06:16.757Z,11.06
2019-02-20T11:07:16.779Z,11.02
2019-02-20T11:08:16.728Z,11.08
2019-02-20T11:09:16.718Z,11.11
2019-02-20T11:10:16.708Z,11.26
2019-02-20T11:11:16.702Z,11.24
2019-02-20T11:12:16.687Z,11.12
2019-02-20T11:13:16.682Z,11.05
2019-02-20T11:14:16.677Z,11.09
2019-02-20T11:15:16.653Z,11.21
2019-02-20T11:16:16.650Z,11.30
2019-02-20T11:17:16.631Z,11.48
2019-02-20T11:18:16.645Z,11.54
2019-02-20T11:19:16.622Z,11.53
2019-02-20T11:20:16.597Z,11.66
2019-02-20T11:21:16.587Z,11.69
2019-02-20T11:22:16.575Z,11.70
2019-02-20T11:23:16.583Z,11.69
2019-02-20T11:24:17.889Z,11.72
2019-02-20T11:25:16.580Z,11.64
2019-02-20T11:26:18.512Z,11.79
2019-02-20T11:27:16.522Z,11.74
2019-02-20T11:28:16.513Z,11.69
2019-02-20T11:29:16.498Z,11.69
2019-02-20T11:30:19.402Z,11.67
2019-02-20T11:31:23.534Z,11.62
2019-02-20T11:32:16.473Z,11.79
2019-02-20T11:33:16.474Z,11.82
2019-02-20T11:34:16.442Z,11.82
2019-02-20T11:35:16.464Z,11.84
2019-02-20T11:36:16.428Z,11.84
2019-02-20T11:37:16.414Z,11.88
2019-02-20T11:38:16.404Z,11.79
2019-02-20T11:39:16.393Z,11.77
2019-02-20T11:40:16.382Z,11.62
2019-02-20T11:41:16.374Z,11.74
2019-02-20T11:42:16.360Z,11.70
2019-02-20T11:43:16.351Z,11.67
2019-02-20T11:44:21.098Z,11.63
2019-02-20T11:45:17.331Z,11.49
2019-02-20T11:46:16.352Z,11.49
2019-02-20T11:47:16.305Z,11.44
2019-02-20T11:48:16.292Z,11.30
2019-02-20T11:49:16.278Z,11.30
2019-02-20T11:50:16.276Z,11.19
2019-02-20T11:51:16.255Z,11.11
2019-02-20T11:52:16.256Z,11.08
2019-02-20T11:53:16.237Z,11.12
2019-02-20T11:54:16.226Z,11.12
2019-02-20T11:55:16.247Z,11.11
2019-02-20T11:56:16.206Z,11.12
2019-02-20T11:57:16.188Z,11.12
2019-02-20T11:58:16.183Z,11.03
2019-02-20T11:59:16.166Z,11.08
2019-02-20T12:00:16.165Z,11.06
2019-02-20T12:01:16.276Z,11.06
2019-02-20T12:02:16.133Z,10.98
2019-02-20T12:03:16.127Z,11.11
2019-02-20T12:04:16.110Z,11.20
2019-02-20T12:05:16.103Z,11.12
2019-02-20T12:06:16.088Z,11.19
2019-02-20T12:07:16.151Z,11.17
2019-02-20T12:08:16.086Z,11.23
2019-02-20T12:09:16.061Z,11.12
2019-02-20T12:10:16.048Z,11.19
2019-02-20T12:11:16.036Z,11.27
2019-02-20T12:12:16.030Z,11.27
2019-02-20T12:13:16.029Z,11.31
2019-02-20T12:14:16.015Z,11.56
2019-02-20T12:15:15.992Z,11.67
2019-02-20T12:16:15.991Z,12.22
2019-02-20T12:17:15.968Z,12.77
2019-02-20T12:18:17.615Z,12.89
2019-02-20T12:19:15.947Z,13.29
2019-02-20T12:20:15.953Z,13.54
2019-02-20T12:21:15.923Z,13.43
2019-02-20T12:22:15.913Z,13.51
2019-02-20T12:23:15.911Z,14.12
2019-02-20T12:24:15.891Z,14.52
2019-02-20T12:25:15.882Z,14.46
2019-02-20T12:26:15.869Z,14.78
2019-02-20T12:27:15.859Z,14.11
2019-02-20T12:28:15.866Z,13.90
2019-02-20T12:29:15.885Z,14.16
2019-02-20T12:30:15.830Z,14.90
2019-02-20T12:31:15.819Z,15.41
2019-02-20T12:32:15.807Z,15.04
2019-02-20T12:33:15.806Z,14.64
2019-02-20T12:34:15.820Z,14.45
2019-02-20T12:35:15.772Z,14.27
2019-02-20T12:36:15.760Z,14.02
2019-02-20T12:37:15.755Z,13.76
2019-02-20T12:38:15.744Z,13.41
2019-02-20T12:39:15.740Z,13.22
2019-02-20T12:40:15.734Z,12.89
2019-02-20T12:41:15.749Z,12.87
2019-02-20T12:42:15.697Z,12.73
2019-02-20T12:43:15.687Z,12.56
2019-02-20T12:44:15.675Z,12.44
2019-02-20T12:45:15.670Z,12.25
2019-02-20T12:46:15.657Z,12.30
2019-02-20T12:47:15.640Z,12.08
2019-02-20T12:48:15.634Z,12.00
